Lawton Fort Sill Regional Airport
KLAW : now visible

Airfield :











YOU CAN JOIN US ON...

 
LOGIN :

Register | Disclaimer

   EN    FR    IT 

 









Legend :    VFR   Marginal VFR   IFR   Intensive IFR   Very Intensive IFR
Visi :
Ceiling :
>= 8 km
>= 3000ft
5 to 8 km
1000 to 3000 ft
1500m to 5 km
500 to 1000 ft
800 to 1500m
200 to 500 ft
< 800m
< 200 ft
Symbols :   Thunderstorms  Fog  Heavy snow  Heavy precipitations  Wind > 20 kt






- Airport Elevation : 1110 ft


KLAW - Lawton Fort Sill Regional

CURRENT METAR :
  • 242253Z 15006KT 10SM CLR 14/01 A2994 RMK AO2 SLP140 T01390011

EXPIRED METARs :
  • 242153Z 17007KT 10SM CLR 14/01 A2995 RMK AO2 SLP142 T01440011
  • 242053Z 13005KT 10SM CLR 14/01 A2998 RMK AO2 SLP152 T01440011 56048

TAF KLAW
Valid from the 24 at 18:00 until the 25 at 18:00 UTC


241737Z 2418/2518 11007KT P6SM SCT250
FM251500 09011KT P6SM OVC015
KZFW FIR / North America



MET'MAP, your aeronautical weather chart ! - Copyright ORBIFLY December 2007 - Disclaimer

ORBIFLY MET'MAP TEAM :

Programming & Development : Alexandra Zaïnal
Concept & original design : Baudouin d'Aumeries
Assistance for programming : Marc-Olivier Méhu
Technical & hardware support : Manuel Goepfert

Contact : metmap@orbifly.com




SOURCES & CREDITS :

   NOAA       Earth
Advisory